Arcata, California
Current Conditions -  °F | °C
As of 7:53 AM on Wednesday 22 Oct 2014 (Local Time) from KACV Reporting Station
Overcast Overcast  
Wind Chill: 62°   Ceiling: 5500
Heat Index: 62°   Visibility: 10mi
Dew Point: 48°   Wind: 9mph
Humidity: 60%   Direction: 140°SE
Pressure: 29.98"   Gusts: NA
Location:  40.87°N, 124.08°W
Report Text: KACV 221453Z AUTO 14008KT 10SM OVC055 17/09 A2998 RMK AO2 SLP157 T01670089 56004
Loading
Personal Weather Stations






























Interactive Weather Map
Tropical Storm Tracking
New forecast layout! Learn more

10-Day Weather Forecast

Advertisements
Track Severe Weather on mobile